Time;durP1;ratioP1;P1;durP2;ratioP2;P2;SDS_P1;SDS_P2;PMS_P1;PMS_P2;Temp;Humidity;BMP_temperature;BMP_pressure;BME280_temperature;BME280_humidity;BME280_pressure;Samples;Min_cycle;Max_cycle;Signal;HPM_P1;HPM_P2
2021/12/20 00:00:26;;;;;;;6.15;3.03;;;;;;;6.34;84.08;102711.53;5132038;27;20027;-66
2021/12/20 00:02:57;;;;;;;9.25;2.90;;;;;;;6.33;83.92;102709.78;5133176;27;20047;-70
2021/12/20 00:05:23;;;;;;;10.55;2.90;;;;;;;6.34;84.03;102714.16;5132810;27;20107;-69
2021/12/20 00:07:48;;;;;;;9.75;3.38;;;;;;;6.36;84.18;102704.56;5130946;27;20050;-66
2021/12/20 00:10:16;;;;;;;9.02;3.10;;;;;;;6.36;84.14;102705.47;5131891;27;20050;-66
2021/12/20 00:12:42;;;;;;;9.75;2.72;;;;;;;6.37;83.94;102706.34;5134768;27;20036;-69
2021/12/20 00:15:08;;;;;;;10.38;2.50;;;;;;;6.35;83.85;102694.97;5133444;27;20039;-66
2021/12/20 00:17:34;;;;;;;9.23;2.80;;;;;;;6.34;83.60;102694.06;5137240;27;20478;-66
2021/12/20 00:19:59;;;;;;;11.43;2.13;;;;;;;6.34;83.33;102691.47;5129603;27;20044;-66
2021/12/20 00:22:25;;;;;;;6.93;2.33;;;;;;;6.33;83.32;102692.31;5128708;27;37489;-67
2021/12/20 00:24:51;;;;;;;13.02;2.40;;;;;;;6.36;82.78;102694.09;5114225;27;20083;-66
2021/12/20 00:27:19;;;;;;;9.57;2.45;;;;;;;6.34;82.54;102688.84;5128507;27;26612;-67
2021/12/20 00:29:49;;;;;;;8.02;2.80;;;;;;;6.34;82.22;102690.59;5135995;27;20084;-67
2021/12/20 00:32:17;;;;;;;11.80;2.92;;;;;;;6.30;82.56;102683.53;5132563;27;20062;-66
2021/12/20 00:34:43;;;;;;;10.48;2.70;;;;;;;6.27;82.69;102686.97;5128101;27;20040;-67
2021/12/20 00:43:01;;;;;;;10.27;2.40;;;;;;;6.23;82.26;102698.25;5115956;27;20056;-66
2021/12/20 00:45:37;;;;;;;10.77;3.10;;;;;;;6.24;82.18;102693.91;5131903;27;20809;-66
2021/12/20 00:48:07;;;;;;;12.48;2.50;;;;;;;6.22;82.01;102702.63;5132235;27;20577;-66
2021/12/20 00:50:34;;;;;;;8.43;2.33;;;;;;;6.22;81.85;102700.00;5130060;27;20042;-67
2021/12/20 00:53:00;;;;;;;10.00;2.03;;;;;;;6.21;81.58;102687.75;5129130;27;20071;-67
2021/12/20 00:55:28;;;;;;;9.38;2.03;;;;;;;6.22;81.26;102693.84;5130378;27;20039;-67
2021/12/20 00:57:57;;;;;;;11.55;2.30;;;;;;;6.22;81.06;102694.75;5128189;27;20058;-66
2021/12/20 01:00:34;;;;;;;11.77;2.03;;;;;;;6.22;80.98;102691.25;5128922;27;20112;-70
2021/12/20 01:03:02;;;;;;;12.00;2.25;;;;;;;6.23;80.48;102695.63;5130678;27;20127;-66
2021/12/20 01:05:29;;;;;;;11.55;2.05;;;;;;;6.23;80.81;102693.00;5129472;27;20486;-64
2021/12/20 01:07:59;;;;;;;8.93;1.98;;;;;;;6.21;80.54;102694.72;5130496;27;21810;-67
2021/12/20 01:10:28;;;;;;;8.77;1.98;;;;;;;6.22;80.71;102689.53;5126340;27;20055;-67
2021/12/20 01:12:55;;;;;;;18.27;1.98;;;;;;;6.23;80.69;102687.78;5129270;27;20039;-66
2021/12/20 01:15:31;;;;;;;10.80;2.25;;;;;;;6.24;80.94;102683.44;5130261;27;20119;-65
2021/12/20 01:17:57;;;;;;;17.20;2.35;;;;;;;6.22;81.19;102680.75;5130944;27;20052;-67
2021/12/20 01:20:22;;;;;;;15.27;2.55;;;;;;;6.24;81.12;102696.53;5130313;27;20040;-69
2021/12/20 01:22:51;;;;;;;9.38;1.95;;;;;;;6.23;81.29;102685.16;5135615;27;20084;-68
2021/12/20 01:25:18;;;;;;;12.15;2.08;;;;;;;6.23;80.79;102685.16;5134817;27;20036;-70
2021/12/20 01:27:44;;;;;;;10.93;1.85;;;;;;;6.21;80.70;102684.22;5135356;27;20048;-67
2021/12/20 01:30:13;;;;;;;16.25;2.70;;;;;;;6.18;80.33;102685.06;5136408;27;20484;-67
2021/12/20 01:32:40;;;;;;;11.90;2.50;;;;;;;6.17;80.38;102680.69;5135085;27;20074;-66
2021/12/20 01:35:09;;;;;;;14.20;2.38;;;;;;;6.17;80.58;102690.28;5135456;27;20058;-67
2021/12/20 01:37:35;;;;;;;13.45;2.20;;;;;;;6.16;80.09;102686.78;5133264;27;20550;-68
2021/12/20 01:40:03;;;;;;;12.85;2.50;;;;;;;6.17;80.10;102692.91;5133968;27;20039;-67
2021/12/20 01:42:31;;;;;;;10.00;2.20;;;;;;;6.16;80.25;102699.00;5128098;27;21920;-68
2021/12/20 01:44:58;;;;;;;15.20;2.40;;;;;;;6.15;79.67;102692.91;5136054;27;20513;-67
2021/12/20 01:47:29;;;;;;;12.13;2.22;;;;;;;6.13;79.02;102691.09;5133479;27;20131;-67
2021/12/20 01:50:09;;;;;;;11.45;2.03;;;;;;;6.11;79.37;102684.94;5127253;27;22008;-66
2021/12/20 01:52:43;;;;;;;12.93;1.92;;;;;;;6.12;79.08;102686.69;5129146;27;20040;-67
2021/12/20 01:55:14;;;;;;;12.95;2.22;;;;;;;6.12;78.71;102679.75;5130953;27;20040;-68
2021/12/20 01:57:40;;;;;;;14.18;2.35;;;;;;;6.11;78.65;102680.59;5126228;27;20073;-69
2021/12/20 02:00:14;;;;;;;11.52;1.83;;;;;;;6.11;78.53;102671.84;5129808;27;20050;-68
2021/12/20 02:02:49;;;;;;;13.05;2.67;;;;;;;6.09;78.03;102671.81;5127731;27;20525;-67
2021/12/20 02:05:26;;;;;;;14.98;2.47;;;;;;;6.09;78.52;102669.19;5129980;27;20039;-68
2021/12/20 02:08:00;;;;;;;20.30;2.50;;;;;;;6.08;78.37;102672.66;5128323;27;20044;-68
2021/12/20 02:10:26;;;;;;;13.05;2.75;;;;;;;6.06;78.18;102680.50;5128477;27;20434;-68
2021/12/20 02:12:52;;;;;;;14.02;2.80;;;;;;;6.07;78.11;102681.38;5129716;27;20041;-67
2021/12/20 02:15:18;;;;;;;16.35;2.53;;;;;;;6.08;78.02;102677.03;5135020;27;20508;-66
2021/12/20 02:17:44;;;;;;;13.80;2.20;;;;;;;6.08;78.01;102674.41;5127825;27;20043;-67
2021/12/20 02:20:40;;;;;;;11.40;1.90;;;;;;;6.07;77.85;102673.53;5127945;27;20117;-66
2021/12/20 02:23:06;;;;;;;12.75;2.20;;;;;;;6.06;77.93;102679.59;5127240;27;20090;-68
2021/12/20 02:25:33;;;;;;;19.90;2.58;;;;;;;6.06;77.92;102684.84;5130403;27;20070;-67
2021/12/20 02:28:10;;;;;;;8.13;2.05;;;;;;;6.06;78.08;102675.28;5129676;27;20043;-64
2021/12/20 02:30:44;;;;;;;12.05;2.38;;;;;;;6.05;78.36;102672.63;5126185;27;20055;-63
2021/12/20 02:38:38;;;;;;;15.38;2.30;;;;;;;6.02;77.77;102664.72;5132737;27;20040;-68
2021/12/20 02:41:15;;;;;;;16.25;2.67;;;;;;;6.03;77.87;102664.72;5132758;27;20031;-68
2021/12/20 02:43:55;;;;;;;16.33;2.38;;;;;;;6.02;77.85;102659.47;5128288;27;20497;-69
2021/12/20 02:49:23;;;;;;;15.43;1.92;;;;;;;6.04;77.84;102669.13;5126992;27;22114;-68
2021/12/20 02:51:53;;;;;;;17.02;2.20;;;;;;;6.03;78.18;102664.72;5125899;27;20079;-68
2021/12/20 02:54:22;;;;;;;18.67;2.38;;;;;;;6.05;78.04;102662.16;5129865;27;20104;-68
2021/12/20 02:56:49;;;;;;;17.85;2.40;;;;;;;6.08;77.88;102663.94;5128981;27;20120;-67
2021/12/20 02:59:16;;;;;;;10.07;1.77;;;;;;;6.09;77.91;102663.97;5128683;27;20040;-67
2021/12/20 03:01:48;;;;;;;10.20;2.00;;;;;;;6.11;77.85;102670.13;5128080;27;20031;-68
2021/12/20 03:04:14;;;;;;;15.18;2.47;;;;;;;6.09;77.97;102663.09;5127503;27;20082;-65
2021/12/20 03:06:48;;;;;;;18.30;2.42;;;;;;;6.09;77.82;102663.97;5128798;27;20142;-66
2021/12/20 03:09:19;;;;;;;14.82;2.50;;;;;;;6.08;77.65;102670.06;5129335;27;20073;-65
2021/12/20 03:11:48;;;;;;;13.98;2.80;;;;;;;6.07;77.69;102676.13;5128883;27;20044;-65
2021/12/20 03:14:23;;;;;;;14.35;2.28;;;;;;;6.06;77.67;102666.50;5123996;27;20036;-65
2021/12/20 03:16:49;;;;;;;17.83;2.63;;;;;;;6.04;77.56;102666.50;5125944;27;20074;-65
2021/12/20 03:19:15;;;;;;;11.57;2.03;;;;;;;6.03;77.62;102667.34;5128966;27;20123;-65
2021/12/20 03:21:40;;;;;;;12.85;2.88;;;;;;;6.05;77.62;102667.41;5129220;27;20047;-65
2021/12/20 03:24:06;;;;;;;19.15;2.55;;;;;;;6.05;77.35;102664.78;5128863;27;20047;-65
2021/12/20 03:26:32;;;;;;;11.98;2.33;;;;;;;6.04;77.31;102665.63;5127082;27;20049;-66
2021/12/20 03:28:59;;;;;;;15.05;2.67;;;;;;;6.04;77.34;102671.75;5128021;27;20061;-66
2021/12/20 03:31:25;;;;;;;18.35;2.90;;;;;;;6.04;77.22;102671.75;5127439;27;20059;-65
2021/12/20 03:33:50;;;;;;;16.38;2.50;;;;;;;6.05;77.10;102670.88;5113532;27;20048;-65
2021/12/20 03:36:17;;;;;;;17.08;2.63;;;;;;;6.05;77.22;102670.03;5131700;27;20047;-69
2021/12/20 03:38:42;;;;;;;14.85;2.72;;;;;;;6.04;77.15;102666.50;5131942;27;20536;-66
2021/12/20 03:41:08;;;;;;;19.70;2.90;;;;;;;6.03;77.36;102674.34;5130190;27;20047;-68
2021/12/20 03:43:35;;;;;;;21.48;2.65;;;;;;;6.03;77.07;102676.97;5130461;27;20043;-67
2021/12/20 03:46:05;;;;;;;15.48;2.45;;;;;;;6.02;77.04;102669.97;5131347;27;20043;-66
2021/12/20 03:48:31;;;;;;;22.23;2.97;;;;;;;6.02;77.00;102669.97;5131382;27;20159;-69
2021/12/20 03:51:02;;;;;;;20.10;3.28;;;;;;;6.01;77.17;102665.56;5137314;27;20036;-69
2021/12/20 03:53:30;;;;;;;14.93;2.85;;;;;;;5.99;77.40;102664.63;5136055;27;20085;-74
2021/12/20 03:55:56;;;;;;;18.92;2.92;;;;;;;5.99;77.34;102656.75;5136387;27;20088;-72
2021/12/20 03:58:22;;;;;;;18.70;2.65;;;;;;;5.98;77.36;102660.22;5118722;27;20076;-71
2021/12/20 04:00:49;;;;;;;15.05;2.47;;;;;;;5.97;77.42;102661.09;5133455;27;20039;-69
2021/12/20 04:03:14;;;;;;;12.48;2.10;;;;;;;5.98;77.45;102662.84;5131419;27;20028;-68
2021/12/20 04:05:41;;;;;;;22.42;2.92;;;;;;;5.99;77.32;102660.31;5130110;27;20040;-68
2021/12/20 04:08:08;;;;;;;13.43;2.25;;;;;;;6.00;77.27;102663.81;5131754;27;20088;-69
2021/12/20 04:10:34;;;;;;;17.98;2.80;;;;;;;6.01;77.20;102665.56;5130251;27;20043;-69
2021/12/20 04:12:59;;;;;;;10.88;2.40;;;;;;;5.99;77.25;102662.94;5128044;27;20471;-69
2021/12/20 04:15:25;;;;;;;18.88;2.33;;;;;;;5.98;77.29;102663.75;5128980;27;20040;-68
2021/12/20 04:17:51;;;;;;;13.60;3.08;;;;;;;5.97;77.38;102659.38;5131420;27;20050;-68
2021/12/20 04:20:16;;;;;;;14.07;2.88;;;;;;;5.98;77.46;102665.47;5131262;27;20059;-66
2021/12/20 04:22:42;;;;;;;15.80;2.85;;;;;;;5.96;77.17;102656.69;5134624;27;20038;-67
2021/12/20 04:25:09;;;;;;;22.60;2.88;;;;;;;5.93;77.08;102654.03;5131925;27;20058;-67
2021/12/20 04:27:35;;;;;;;14.13;2.55;;;;;;;5.89;77.14;102656.59;5129265;27;20048;-67
2021/12/20 04:30:09;;;;;;;18.45;3.50;;;;;;;5.88;76.96;102661.81;5132225;27;20036;-67
2021/12/20 04:32:42;;;;;;;23.20;2.60;;;;;;;5.87;76.69;102667.91;5129290;27;20138;-66
2021/12/20 04:35:10;;;;;;;17.45;2.97;;;;;;;5.85;77.05;102664.38;5130431;27;20040;-66
2021/12/20 04:37:36;;;;;;;20.15;3.05;;;;;;;5.86;77.16;102666.13;5130489;27;20516;-68
2021/12/20 04:40:07;;;;;;;16.92;2.92;;;;;;;5.87;77.13;102660.91;5131451;27;20505;-66
2021/12/20 04:42:33;;;;;;;16.98;2.55;;;;;;;5.88;77.16;102662.69;5127200;27;21195;-67
2021/12/20 04:44:59;;;;;;;21.73;2.83;;;;;;;5.89;77.15;102664.44;5128340;27;43017;-68
2021/12/20 04:47:24;;;;;;;26.38;3.28;;;;;;;5.90;77.23;102662.72;5130101;27;20074;-67
2021/12/20 04:49:50;;;;;;;23.42;2.88;;;;;;;5.90;77.08;102670.59;5113497;27;30358;-67
2021/12/20 04:52:15;;;;;;;18.02;2.53;;;;;;;5.90;77.04;102670.59;5128526;27;20039;-69
2021/12/20 04:54:41;;;;;;;17.13;2.45;;;;;;;5.90;76.87;102666.22;5128069;27;20047;-66
2021/12/20 04:57:07;;;;;;;14.63;2.70;;;;;;;5.89;76.90;102674.94;5133746;27;20043;-66
2021/12/20 04:59:33;;;;;;;13.43;2.33;;;;;;;5.90;76.90;102675.81;5125089;27;20062;-66
2021/12/20 05:01:58;;;;;;;18.25;2.63;;;;;;;5.93;76.63;102688.09;5130010;27;39533;-66
2021/12/20 05:04:24;;;;;;;18.88;3.00;;;;;;;5.89;76.94;102677.53;5133410;27;38714;-65
2021/12/20 05:06:50;;;;;;;14.48;3.10;;;;;;;5.88;76.51;102673.16;5127702;27;20135;-65
2021/12/20 05:09:17;;;;;;;16.25;2.47;;;;;;;5.87;76.65;102674.00;5117424;27;20055;-67
2021/12/20 05:11:50;;;;;;;18.60;2.97;;;;;;;5.85;76.64;102680.94;5128170;27;20799;-66
2021/12/20 05:14:17;;;;;;;12.80;2.42;;;;;;;5.86;76.65;102681.84;5130337;27;20421;-66
2021/12/20 05:16:43;;;;;;;19.38;3.22;;;;;;;5.84;76.52;102670.47;5130019;27;20132;-67
2021/12/20 05:19:09;;;;;;;20.23;2.90;;;;;;;5.83;76.52;102680.06;5130983;27;20122;-68
2021/12/20 05:21:34;;;;;;;22.50;3.03;;;;;;;5.82;76.65;102685.25;5130073;27;20039;-66
2021/12/20 05:24:00;;;;;;;15.90;2.55;;;;;;;5.81;76.68;102676.53;5130302;27;20036;-66
2021/12/20 05:26:27;;;;;;;23.20;3.05;;;;;;;5.81;76.59;102675.63;5129581;27;20043;-66
2021/12/20 05:28:55;;;;;;;20.38;2.67;;;;;;;5.80;76.59;102673.88;5129778;27;20054;-67
2021/12/20 05:31:21;;;;;;;19.98;2.95;;;;;;;5.79;76.50;102674.75;5129091;27;20043;-65
2021/12/20 05:33:47;;;;;;;17.98;2.92;;;;;;;5.77;76.53;102684.28;5127847;27;20059;-65
2021/12/20 05:36:12;;;;;;;20.02;3.08;;;;;;;5.75;77.08;102676.38;5129138;27;20067;-65
2021/12/20 05:38:38;;;;;;;23.98;2.67;;;;;;;5.75;76.59;102679.00;5126921;27;20043;-66
2021/12/20 05:41:04;;;;;;;18.35;2.70;;;;;;;5.74;76.92;102683.38;5112506;27;20059;-66
2021/12/20 05:43:30;;;;;;;21.17;2.80;;;;;;;5.76;76.83;102678.16;5119604;27;20508;-67
2021/12/20 05:45:56;;;;;;;17.25;3.35;;;;;;;5.76;76.39;102686.00;5136433;27;20035;-69
2021/12/20 05:48:21;;;;;;;19.23;2.80;;;;;;;5.74;76.58;102678.13;5134811;27;20028;-70
2021/12/20 05:50:47;;;;;;;18.40;2.72;;;;;;;5.75;76.72;102679.91;5134954;27;27841;-65
2021/12/20 05:53:13;;;;;;;17.27;2.78;;;;;;;5.78;77.14;102675.59;5135270;27;20098;-65
2021/12/20 05:55:38;;;;;;;20.27;2.58;;;;;;;5.86;76.90;102684.47;5134001;27;20040;-65
2021/12/20 05:58:04;;;;;;;15.18;2.45;;;;;;;5.93;76.45;102677.63;5134336;27;20040;-65
2021/12/20 06:00:29;;;;;;;19.15;2.53;;;;;;;6.00;76.43;102682.13;5113309;27;20028;-65
2021/12/20 06:02:55;;;;;;;17.17;1.90;;;;;;;6.03;76.09;102687.44;5132345;27;20404;-65
2021/12/20 06:05:22;;;;;;;24.48;2.97;;;;;;;6.10;75.64;102683.19;5121537;27;20162;-67
2021/12/20 06:07:48;;;;;;;13.07;2.42;;;;;;;6.13;75.08;102684.13;5134725;27;20043;-66
2021/12/20 06:10:17;;;;;;;13.70;2.05;;;;;;;6.11;74.95;102690.16;5133126;27;20052;-65
2021/12/20 06:12:44;;;;;;;12.20;2.40;;;;;;;6.07;74.68;102691.84;5133173;27;20031;-66
2021/12/20 06:15:11;;;;;;;15.80;2.45;;;;;;;6.01;74.74;102691.75;5134094;27;20043;-66
2021/12/20 06:17:37;;;;;;;14.95;2.78;;;;;;;5.95;74.88;102683.75;5133951;27;20501;-65
2021/12/20 06:20:06;;;;;;;20.85;2.95;;;;;;;5.93;75.24;102698.56;5135109;27;20044;-65
2021/12/20 06:22:32;;;;;;;12.15;2.72;;;;;;;5.95;75.23;102684.63;5134545;27;20516;-66
2021/12/20 06:24:57;;;;;;;13.52;2.17;;;;;;;5.95;74.79;102687.25;5133612;27;20118;-66
2021/12/20 06:27:23;;;;;;;17.67;3.17;;;;;;;5.92;74.73;102692.41;5134272;27;20109;-66
2021/12/20 06:29:48;;;;;;;18.38;3.42;;;;;;;5.88;74.90;102696.72;5134805;27;30739;-67
2021/12/20 06:32:14;;;;;;;16.95;2.70;;;;;;;5.85;75.05;102691.41;5130942;27;41697;-67
2021/12/20 06:34:39;;;;;;;21.33;2.63;;;;;;;5.82;74.63;102698.31;5132449;27;20109;-67
2021/12/20 06:37:06;;;;;;;18.77;3.05;;;;;;;5.74;74.93;102696.47;5133498;27;20481;-67
2021/12/20 06:39:31;;;;;;;19.05;2.80;;;;;;;5.71;75.37;102700.75;5135034;27;20047;-66
2021/12/20 06:41:58;;;;;;;20.98;3.10;;;;;;;5.69;75.71;102705.06;5133194;27;20040;-69
2021/12/20 06:44:24;;;;;;;22.23;2.50;;;;;;;5.67;75.60;102705.06;5135209;27;20035;-70
2021/12/20 06:46:51;;;;;;;12.80;2.63;;;;;;;5.68;75.61;102706.81;5130164;27;20085;-67
2021/12/20 06:49:17;;;;;;;18.50;3.47;;;;;;;5.67;75.80;102705.06;5129006;27;20512;-68
2021/12/20 06:51:44;;;;;;;17.77;3.28;;;;;;;5.66;75.64;102708.50;5129949;27;39791;-69
2021/12/20 06:54:13;;;;;;;16.95;2.63;;;;;;;5.66;75.76;102712.84;5128284;27;20139;-66
2021/12/20 06:56:38;;;;;;;18.35;2.95;;;;;;;5.64;75.75;102717.19;5133835;27;20054;-69
2021/12/20 06:59:04;;;;;;;20.27;2.72;;;;;;;5.64;75.96;102710.22;5131292;27;26912;-68
2021/12/20 07:01:30;;;;;;;19.10;2.55;;;;;;;5.64;75.58;102709.34;5127070;27;20555;-68
2021/12/20 07:03:56;;;;;;;17.40;2.97;;;;;;;5.64;75.68;102715.44;5105906;28;20036;-68
2021/12/20 07:06:23;;;;;;;15.60;2.30;;;;;;;5.66;75.24;102718.06;5124828;27;20051;-66
2021/12/20 07:08:48;;;;;;;18.05;2.78;;;;;;;5.66;75.30;102715.47;5133621;27;20043;-67
2021/12/20 07:11:14;;;;;;;10.93;2.20;;;;;;;5.66;75.33;102718.06;5134846;27;20558;-67
2021/12/20 07:13:40;;;;;;;15.27;2.90;;;;;;;5.67;75.34;102730.31;5134079;27;20066;-69
2021/12/20 07:16:07;;;;;;;14.52;2.42;;;;;;;5.66;75.18;102721.59;5129857;27;20047;-66
2021/12/20 07:18:34;;;;;;;15.15;2.67;;;;;;;5.64;74.67;102720.69;5130972;27;20047;-67
2021/12/20 07:21:00;;;;;;;16.98;2.97;;;;;;;5.62;74.82;102721.50;5130578;27;20108;-66
2021/12/20 07:23:26;;;;;;;15.30;2.88;;;;;;;5.60;74.53;102722.34;5128759;27;20126;-68
2021/12/20 07:25:52;;;;;;;13.13;2.92;;;;;;;5.60;74.12;102730.22;5134877;27;20040;-66
2021/12/20 07:28:18;;;;;;;19.55;3.08;;;;;;;5.59;74.20;102724.94;5131843;27;20036;-66
2021/12/20 07:30:49;;;;;;;19.90;2.50;;;;;;;5.58;74.31;102729.28;5130419;27;20607;-65
2021/12/20 07:33:15;;;;;;;17.30;3.38;;;;;;;5.56;74.30;102727.50;5128589;27;20051;-65
2021/12/20 07:35:45;;;;;;;12.68;2.60;;;;;;;5.56;74.21;102730.97;5136189;27;20046;-65
2021/12/20 07:38:13;;;;;;;15.80;3.20;;;;;;;5.53;74.33;102732.66;5135904;27;20043;-65
2021/12/20 07:40:47;;;;;;;14.00;2.38;;;;;;;5.53;73.93;102730.94;5129143;27;20546;-67
2021/12/20 07:43:16;;;;;;;18.70;2.95;;;;;;;5.54;73.64;102739.66;5135528;27;20036;-65
2021/12/20 07:45:47;;;;;;;14.95;2.28;;;;;;;5.51;73.44;102730.00;5113535;27;20051;-67
2021/12/20 07:48:15;;;;;;;20.30;3.35;;;;;;;5.50;73.78;102724.72;5131720;27;20032;-65
2021/12/20 07:50:40;;;;;;;17.48;3.30;;;;;;;5.49;73.97;102731.72;5134731;27;20028;-67
2021/12/20 07:53:06;;;;;;;21.75;4.30;;;;;;;5.49;74.10;102736.94;5133399;27;20040;-67
2021/12/20 07:55:31;;;;;;;19.65;3.80;;;;;;;5.50;74.25;102736.09;5137186;27;38363;-65
2021/12/20 07:57:58;;;;;;;15.95;2.95;;;;;;;5.52;74.18;102738.72;5131993;27;20478;-67
2021/12/20 08:00:23;;;;;;;21.15;3.88;;;;;;;5.52;74.34;102731.78;5135178;27;20040;-66
2021/12/20 08:02:50;;;;;;;20.60;3.38;;;;;;;5.53;74.42;102733.56;5135057;27;20045;-65
2021/12/20 08:05:18;;;;;;;14.93;2.88;;;;;;;5.56;74.24;102743.19;5137675;27;20028;-67
2021/12/20 08:07:45;;;;;;;16.80;3.20;;;;;;;5.55;74.07;102738.81;5134654;27;20531;-66
2021/12/20 08:10:11;;;;;;;15.75;2.85;;;;;;;5.55;73.94;102744.03;5132282;27;20036;-66
2021/12/20 08:12:37;;;;;;;16.60;3.03;;;;;;;5.55;74.06;102738.81;5137308;27;20036;-65
2021/12/20 08:15:03;;;;;;;11.00;2.83;;;;;;;5.56;74.13;102738.81;5134796;27;20039;-65
2021/12/20 08:17:31;;;;;;;19.17;3.00;;;;;;;5.59;74.16;102740.66;5134999;27;20048;-65
2021/12/20 08:19:57;;;;;;;14.73;3.03;;;;;;;5.60;73.90;102747.63;5133674;27;20031;-64
2021/12/20 08:22:25;;;;;;;21.67;3.58;;;;;;;5.63;73.98;102746.81;5133183;27;20474;-65
2021/12/20 08:24:51;;;;;;;22.80;3.08;;;;;;;5.62;74.36;102748.53;5133375;27;20093;-65
2021/12/20 08:27:17;;;;;;;21.73;3.53;;;;;;;5.64;74.52;102752.09;5127628;27;20067;-65
2021/12/20 08:29:42;;;;;;;19.10;3.47;;;;;;;5.67;74.01;102746.91;5117684;27;20066;-65
2021/12/20 08:32:08;;;;;;;21.40;4.70;;;;;;;5.69;74.26;102755.69;5136696;27;20032;-65
2021/12/20 08:34:34;;;;;;;17.50;3.70;;;;;;;5.73;74.02;102760.13;5115485;28;20089;-64
2021/12/20 08:37:03;;;;;;;17.88;3.38;;;;;;;5.77;73.66;102761.06;5112302;27;20055;-66
2021/12/20 08:39:31;;;;;;;18.67;3.25;;;;;;;5.78;73.40;102764.56;5128249;27;20054;-65
2021/12/20 08:41:57;;;;;;;14.35;3.50;;;;;;;5.81;73.39;102764.63;5130932;27;20039;-65
2021/12/20 08:44:25;;;;;;;20.42;3.25;;;;;;;5.86;72.96;102760.38;5126902;27;20727;-65
2021/12/20 08:46:53;;;;;;;17.70;3.35;;;;;;;5.89;73.16;102769.16;5125436;27;20062;-65
2021/12/20 08:49:19;;;;;;;18.92;2.55;;;;;;;5.99;72.39;102767.66;5127247;27;20071;-66
2021/12/20 08:51:45;;;;;;;20.05;3.08;;;;;;;6.07;72.76;102762.56;5134183;27;20142;-67
2021/12/20 08:54:12;;;;;;;15.65;2.72;;;;;;;6.18;72.65;102761.03;5135367;27;20038;-67
2021/12/20 08:56:38;;;;;;;18.42;3.10;;;;;;;6.29;72.40;102765.56;5135613;27;20477;-66
2021/12/20 08:59:05;;;;;;;15.98;2.55;;;;;;;6.36;71.97;102768.34;5112560;27;20036;-67
2021/12/20 09:01:31;;;;;;;14.73;3.03;;;;;;;6.37;71.62;102767.50;5132478;27;20046;-65
2021/12/20 09:03:57;;;;;;;15.93;3.03;;;;;;;6.37;71.27;102758.75;5129467;27;20825;-66
2021/12/20 09:06:27;;;;;;;16.40;3.08;;;;;;;6.34;70.91;102761.31;5134710;27;20043;-66
2021/12/20 09:08:54;;;;;;;14.70;2.42;;;;;;;6.31;70.80;102762.13;5125507;27;20032;-65
2021/12/20 09:11:28;;;;;;;14.75;2.70;;;;;;;6.27;70.87;102765.56;5125739;27;20089;-67
2021/12/20 09:13:54;;;;;;;17.48;2.58;;;;;;;6.22;71.13;102772.44;5130697;27;20101;-66
2021/12/20 09:16:20;;;;;;;21.08;2.85;;;;;;;6.15;71.47;102767.94;5133988;27;20036;-67
2021/12/20 09:18:46;;;;;;;17.33;2.90;;;;;;;6.10;71.41;102774.84;5134060;27;20044;-68
2021/12/20 09:21:12;;;;;;;19.55;2.67;;;;;;;6.01;71.70;102776.41;5136612;27;20539;-67
2021/12/20 09:23:40;;;;;;;23.15;3.88;;;;;;;5.98;72.02;102778.94;5132585;27;20454;-67
2021/12/20 09:26:07;;;;;;;15.85;3.03;;;;;;;6.03;71.83;102776.47;5127631;27;20024;-66
2021/12/20 09:28:33;;;;;;;21.13;3.25;;;;;;;6.06;71.42;102774.78;5130146;27;20032;-67
2021/12/20 09:31:01;;;;;;;21.85;3.10;;;;;;;6.11;71.20;102792.28;5134501;27;20331;-69
2021/12/20 09:33:27;;;;;;;17.77;2.83;;;;;;;6.13;71.19;102783.63;5132906;27;20104;-69
2021/12/20 09:35:53;;;;;;;15.02;3.22;;;;;;;6.17;71.66;102787.19;5134104;27;20543;-68
2021/12/20 09:38:21;;;;;;;21.58;2.53;;;;;;;6.24;71.50;102790.81;5128840;27;20135;-66
2021/12/20 09:43:46;;;;;;;15.00;2.72;;;;;;;6.32;71.55;102797.94;5134233;27;20042;-66
2021/12/20 09:46:14;;;;;;;16.75;2.50;;;;;;;6.40;71.46;102792.00;5135911;27;20069;-67
2021/12/20 09:48:45;;;;;;;17.88;3.13;;;;;;;6.46;71.21;102790.34;5135946;27;20457;-66
2021/12/20 09:51:12;;;;;;;20.30;3.38;;;;;;;6.49;71.21;102793.03;5135662;27;20047;-66
2021/12/20 09:53:38;;;;;;;24.95;3.15;;;;;;;6.53;71.16;102797.47;5135397;27;20061;-67
2021/12/20 09:56:05;;;;;;;16.20;2.95;;;;;;;6.56;70.91;102795.78;5134458;27;20077;-67
2021/12/20 09:58:37;;;;;;;16.67;2.70;;;;;;;6.55;70.72;102797.50;5132527;27;20042;-66
2021/12/20 10:01:08;;;;;;;17.55;3.15;;;;;;;6.56;70.80;102795.78;5136116;27;20119;-69
2021/12/20 10:03:35;;;;;;;23.80;3.67;;;;;;;6.58;71.22;102813.28;5132011;27;20048;-66
2021/12/20 10:06:01;;;;;;;23.80;3.40;;;;;;;6.62;70.90;102801.13;5135787;27;20101;-66
2021/12/20 10:08:35;;;;;;;16.55;2.92;;;;;;;6.60;71.27;102808.97;5128590;27;20036;-64
2021/12/20 10:11:17;;;;;;;20.48;3.13;;;;;;;6.63;71.17;102811.59;5135929;27;20039;-67
2021/12/20 10:13:43;;;;;;;17.15;3.88;;;;;;;6.63;71.36;102809.00;5131050;27;20032;-66
2021/12/20 10:16:22;;;;;;;25.50;4.75;;;;;;;6.67;71.44;102807.31;5131506;27;20811;-65
2021/12/20 10:18:49;;;;;;;21.30;3.80;;;;;;;6.71;70.69;102803.03;5135317;27;20040;-67
2021/12/20 10:21:16;;;;;;;24.05;3.83;;;;;;;6.69;70.70;102800.34;5133565;27;20440;-66
2021/12/20 10:23:47;;;;;;;22.08;3.95;;;;;;;6.69;70.99;102802.97;5133164;27;20048;-67
2021/12/20 10:26:19;;;;;;;23.30;4.07;;;;;;;6.71;70.81;102803.03;5133192;27;20051;-67
2021/12/20 10:28:47;;;;;;;24.40;4.20;;;;;;;6.72;71.18;102800.41;5135524;27;20047;-67
2021/12/20 10:31:21;;;;;;;22.27;3.83;;;;;;;6.76;71.07;102801.34;5132401;27;20150;-66
2021/12/20 10:34:01;;;;;;;19.75;3.08;;;;;;;6.77;71.05;102798.75;5132469;27;20533;-65
2021/12/20 10:36:28;;;;;;;23.60;3.78;;;;;;;6.79;70.54;102797.03;5119094;27;20040;-66
2021/12/20 10:38:59;;;;;;;24.88;5.93;;;;;;;6.82;70.53;102811.94;5128359;27;20085;-66
2021/12/20 10:41:39;;;;;;;22.45;3.92;;;;;;;6.83;70.54;102803.19;5135212;27;20064;-67
2021/12/20 10:44:20;;;;;;;28.27;7.80;;;;;;;6.83;70.60;102803.19;5136809;27;20043;-68
2021/12/20 10:46:54;;;;;;;24.77;4.28;;;;;;;6.83;70.78;102805.81;5135113;27;20078;-67
2021/12/20 10:49:26;;;;;;;18.45;3.85;;;;;;;6.88;71.20;102804.19;5136210;27;20261;-67
2021/12/20 10:51:53;;;;;;;27.20;4.53;;;;;;;6.93;70.91;102805.13;5137206;27;20043;-67
2021/12/20 10:54:23;;;;;;;17.67;3.22;;;;;;;6.96;70.90;102799.06;5138788;27;20036;-67
2021/12/20 10:56:58;;;;;;;28.13;3.90;;;;;;;7.02;71.05;102795.66;5138021;27;20051;-67
2021/12/20 10:59:37;;;;;;;24.00;3.70;;;;;;;7.05;70.64;102793.97;5138367;27;20035;-67
2021/12/20 11:03:09;;;;;;;27.00;3.88;;;;;;;7.08;70.69;102798.38;5134301;27;20456;-67
2021/12/20 11:05:22;;;;;;;24.48;3.92;;;;;;;7.12;70.31;102795.81;5138965;27;20036;-67
2021/12/20 11:10:32;;;;;;;24.57;3.87;;;;;;;7.18;69.60;102791.50;5138778;27;20039;-68
2021/12/20 11:12:58;;;;;;;27.15;3.70;;;;;;;7.21;69.70;102791.56;5139034;27;20276;-66
2021/12/20 11:15:28;;;;;;;20.80;4.03;;;;;;;7.23;69.44;102785.47;5137988;27;20043;-67
2021/12/20 11:17:54;;;;;;;20.85;4.28;;;;;;;7.26;69.62;102788.16;5130898;27;20039;-67
2021/12/20 11:20:21;;;;;;;22.38;4.15;;;;;;;7.32;69.35;102782.13;5139251;27;20031;-68
2021/12/20 11:22:48;;;;;;;20.50;4.22;;;;;;;7.38;69.41;102783.94;5132385;27;20032;-67
2021/12/20 11:25:15;;;;;;;25.30;3.97;;;;;;;7.41;69.32;102789.25;5133870;27;20124;-68
2021/12/20 11:27:46;;;;;;;21.98;4.20;;;;;;;7.39;69.69;102785.72;5137121;27;20036;-68
2021/12/20 11:30:22;;;;;;;23.88;4.80;;;;;;;7.41;68.77;102782.25;5116840;27;20554;-68
2021/12/20 11:32:49;;;;;;;23.77;4.05;;;;;;;7.41;68.33;102777.00;5136149;27;20074;-69
2021/12/20 11:35:19;;;;;;;20.98;3.67;;;;;;;7.43;68.34;102779.63;5137429;27;20046;-69
2021/12/20 11:37:45;;;;;;;27.13;4.32;;;;;;;7.45;68.30;102783.16;5132643;27;20104;-68
2021/12/20 11:40:14;;;;;;;17.17;3.67;;;;;;;7.48;68.22;102783.22;5127526;27;20047;-67
2021/12/20 11:42:40;;;;;;;21.02;3.97;;;;;;;7.52;68.36;102782.41;5133009;27;20043;-65
2021/12/20 11:45:10;;;;;;;23.52;4.50;;;;;;;7.58;67.65;102782.47;5134575;27;20040;-66
2021/12/20 11:48:05;;;;;;;19.75;3.92;;;;;;;7.61;67.82;102779.00;5136105;27;20092;-65
2021/12/20 11:50:36;;;;;;;18.63;3.47;;;;;;;7.66;66.83;102776.44;5134983;27;20046;-67